Aviation Digital Data Service (ADDS)

Output produced by METARs form (1226 UTC 02 October 2014)
found at http://aviationweather.gov/adds/metars/
 
KLFT 021123Z 0212/0312 00000KT 4SM BR VCSH BKN002 
     TEMPO 0212/0213 1/2SM FG 
     FM021400 17005KT P6SM VCSH SCT012 BKN025 
     TEMPO 0214/0215 BKN012 OVC025 
     FM021700 19009G14KT P6SM VCTS SCT030CB BKN050 
     FM030200 18005KT P6SM VCSH BKN015 
     FM030800 20008KT P6SM VCSH SCT009 BKN012 
     PROB30 0308/0312 4SM -SHRA